Terminal Aerodrome Forecast
Issued by NWS Charleston, WV

Current Version | Previous Version | Graphics & Text | Print | Product List | Glossary On
Versions: 1 2 3 4 5 6 7 8 9 10 11 12 13 14 15 16 17 18 19 20
000
FTUS41 KRLX 180900 AAA
TAFPKB
TAF AMD
KPKB 180919Z 1809/1906 28007KT P6SM OVC020
     FM181600 27004KT P6SM OVC040
     FM190500 27004KT P6SM BKN022=

USA.gov is the U.S. government's official web portal to all federal, state and local government web resources and services.